createdAt,value
2023-03-28T00:00:47.029Z,2.00
2023-03-28T00:03:02.829Z,1.60
2023-03-28T00:05:17.451Z,2.00
2023-03-28T00:07:30.219Z,1.90
2023-03-28T00:09:43.428Z,2.40
2023-03-28T00:11:55.996Z,1.90
2023-03-28T00:14:08.880Z,1.70
2023-03-28T00:16:21.596Z,1.70
2023-03-28T00:18:37.651Z,1.80
2023-03-28T00:20:50.286Z,1.70
2023-03-28T00:23:04.098Z,1.60
2023-03-28T00:25:16.767Z,1.80
2023-03-28T00:27:29.326Z,1.90
2023-03-28T00:29:42.064Z,2.10
2023-03-28T00:31:54.615Z,1.80
2023-03-28T00:34:08.247Z,1.70
2023-03-28T00:36:26.679Z,2.00
2023-03-28T00:38:39.929Z,1.70
2023-03-28T00:40:56.030Z,2.10
2023-03-28T00:43:13.529Z,2.00
2023-03-28T00:45:27.097Z,2.00
2023-03-28T00:47:46.106Z,1.80
2023-03-28T00:50:09.089Z,1.70
2023-03-28T00:52:24.267Z,1.80
2023-03-28T00:54:40.274Z,1.80
2023-03-28T00:56:57.102Z,1.70
2023-03-28T00:59:15.839Z,2.40
2023-03-28T01:01:28.473Z,2.10
2023-03-28T01:03:46.244Z,2.20
2023-03-28T01:06:02.157Z,2.40
2023-03-28T01:08:21.106Z,1.90
2023-03-28T01:10:33.715Z,1.90
2023-03-28T01:12:46.416Z,2.10
2023-03-28T01:15:00.843Z,2.10
2023-03-28T01:17:15.943Z,2.10
2023-03-28T01:20:03.536Z,1.90
2023-03-28T01:22:57.261Z,1.80
2023-03-28T01:25:38.398Z,2.10
2023-03-28T01:28:05.474Z,1.90
2023-03-28T01:30:17.970Z,2.10
2023-03-28T01:32:58.166Z,2.00
2023-03-28T01:35:47.731Z,2.00
2023-03-28T01:38:34.294Z,2.30
2023-03-28T01:41:02.645Z,2.10
2023-03-28T01:43:23.900Z,2.30
2023-03-28T01:45:55.334Z,2.30
2023-03-28T01:48:13.984Z,2.00
2023-03-28T01:50:34.384Z,1.90
2023-03-28T01:53:03.428Z,2.20
2023-03-28T01:55:34.154Z,2.20
2023-03-28T01:58:06.996Z,2.10
2023-03-28T02:00:34.842Z,2.30
2023-03-28T02:02:56.860Z,2.40
2023-03-28T02:05:15.609Z,2.30
2023-03-28T02:07:29.371Z,2.80
2023-03-28T02:09:44.932Z,2.70
2023-03-28T02:12:01.082Z,2.80
2023-03-28T02:14:22.731Z,3.00
2023-03-28T02:16:38.609Z,3.10
2023-03-28T02:18:56.100Z,2.90
2023-03-28T02:21:17.218Z,2.90
2023-03-28T02:23:36.634Z,3.00
2023-03-28T02:25:49.738Z,2.80
2023-03-28T02:28:06.905Z,2.60
2023-03-28T02:30:19.984Z,2.80
2023-03-28T02:32:34.087Z,2.90
2023-03-28T02:34:48.904Z,2.40
2023-03-28T02:37:15.920Z,2.40
2023-03-28T02:39:34.443Z,3.80
2023-03-28T02:42:11.882Z,5.60
2023-03-28T02:44:46.045Z,2.90
2023-03-28T02:47:26.143Z,5.10
2023-03-28T02:49:50.826Z,3.30
2023-03-28T02:52:35.081Z,3.10
2023-03-28T02:55:02.072Z,2.70
2023-03-28T02:57:46.703Z,2.60
2023-03-28T03:00:13.336Z,2.60
2023-03-28T03:02:28.884Z,2.90
2023-03-28T03:04:41.587Z,3.00
2023-03-28T03:06:54.476Z,2.40
2023-03-28T03:09:08.203Z,2.10
2023-03-28T03:11:21.422Z,1.90
2023-03-28T03:13:34.057Z,2.10
2023-03-28T03:15:46.595Z,2.00
2023-03-28T03:17:59.610Z,2.00
2023-03-28T03:20:12.308Z,2.80
2023-03-28T03:22:25.647Z,3.10
2023-03-28T03:24:39.199Z,1.90
2023-03-28T03:26:51.729Z,2.40
2023-03-28T03:29:04.511Z,2.90
2023-03-28T03:31:17.500Z,1.90
2023-03-28T03:33:32.277Z,2.00
2023-03-28T03:35:48.152Z,2.30
2023-03-28T03:38:00.887Z,2.50
2023-03-28T03:40:14.015Z,2.30
2023-03-28T03:42:26.548Z,1.60
2023-03-28T03:44:39.310Z,1.60
2023-03-28T03:46:51.846Z,1.60
2023-03-28T03:49:04.502Z,2.10
2023-03-28T03:51:17.811Z,1.80
2023-03-28T03:53:30.370Z,1.60
2023-03-28T03:55:43.410Z,1.70
2023-03-28T03:57:56.127Z,1.70
2023-03-28T04:00:12.298Z,1.80
2023-03-28T04:02:24.987Z,1.40
2023-03-28T04:04:40.454Z,2.20
2023-03-28T04:06:53.086Z,3.50
2023-03-28T04:09:07.687Z,1.70
2023-03-28T04:11:20.264Z,1.90
2023-03-28T04:13:32.873Z,2.10
2023-03-28T04:15:47.560Z,1.70
2023-03-28T04:18:01.807Z,1.50
2023-03-28T04:20:17.453Z,1.70
2023-03-28T04:22:30.789Z,1.70
2023-03-28T04:24:44.617Z,1.70
2023-03-28T04:26:57.227Z,2.30
2023-03-28T04:29:10.432Z,1.80
2023-03-28T04:31:29.468Z,1.50
2023-03-28T04:33:45.310Z,1.30
2023-03-28T04:36:02.826Z,1.20
2023-03-28T04:38:20.634Z,1.00
2023-03-28T04:40:34.019Z,1.10
2023-03-28T04:42:46.793Z,1.40
2023-03-28T04:44:59.333Z,1.20
2023-03-28T04:47:12.797Z,1.10
2023-03-28T04:49:26.433Z,1.30
2023-03-28T04:51:39.089Z,1.10
2023-03-28T04:53:51.757Z,1.10
2023-03-28T04:56:05.727Z,0.90
2023-03-28T04:58:21.048Z,1.10
2023-03-28T05:00:33.643Z,1.10
2023-03-28T05:02:47.727Z,1.20
2023-03-28T05:05:00.445Z,1.70
2023-03-28T05:07:14.011Z,1.10
2023-03-28T05:09:26.599Z,1.60
2023-03-28T05:11:39.874Z,1.00
2023-03-28T05:13:52.352Z,1.00
2023-03-28T05:16:05.574Z,1.00
2023-03-28T05:18:18.148Z,1.00
2023-03-28T05:20:31.773Z,1.20
2023-03-28T05:22:44.511Z,1.20
2023-03-28T05:24:57.099Z,0.90
2023-03-28T05:27:09.742Z,1.30
2023-03-28T05:29:22.314Z,1.00
2023-03-28T05:31:34.895Z,1.20
2023-03-28T05:33:47.445Z,1.20
2023-03-28T05:36:00.489Z,1.40
2023-03-28T05:38:14.285Z,1.00
2023-03-28T05:40:27.011Z,1.40
2023-03-28T05:42:39.891Z,1.10
2023-03-28T05:44:52.472Z,0.80
2023-03-28T05:47:05.225Z,1.10
2023-03-28T05:49:17.905Z,1.00
2023-03-28T05:51:30.613Z,1.20
2023-03-28T05:53:43.167Z,1.30
2023-03-28T05:55:55.674Z,1.10
2023-03-28T05:58:08.329Z,1.50
2023-03-28T06:00:21.184Z,1.40
2023-03-28T06:02:33.964Z,1.20
2023-03-28T06:04:46.898Z,1.30
2023-03-28T06:07:00.938Z,1.00
2023-03-28T06:09:15.724Z,1.20
2023-03-28T06:11:28.284Z,1.30
2023-03-28T06:13:40.784Z,1.20
2023-03-28T06:15:53.496Z,1.00
2023-03-28T06:18:06.044Z,1.30
2023-03-28T06:20:19.084Z,1.10
2023-03-28T06:22:31.719Z,1.20
2023-03-28T06:24:44.333Z,1.10
2023-03-28T06:26:57.090Z,1.20
2023-03-28T06:29:12.056Z,1.10
2023-03-28T06:31:24.954Z,1.20
2023-03-28T06:33:40.902Z,1.40
2023-03-28T06:35:53.492Z,1.30
2023-03-28T06:38:06.205Z,1.40
2023-03-28T06:40:19.337Z,1.40
2023-03-28T06:42:31.950Z,1.30
2023-03-28T06:44:44.552Z,1.10
2023-03-28T06:46:57.168Z,1.40
2023-03-28T06:49:09.722Z,1.50
2023-03-28T06:51:22.282Z,1.80
2023-03-28T06:53:36.114Z,2.10
2023-03-28T06:55:53.576Z,1.80
2023-03-28T06:58:06.697Z,1.60
2023-03-28T07:00:19.714Z,1.60
2023-03-28T07:02:32.428Z,1.70
2023-03-28T07:04:45.069Z,1.40
2023-03-28T07:06:57.630Z,1.50
2023-03-28T07:09:10.588Z,1.60
2023-03-28T07:11:23.432Z,1.60
2023-03-28T07:13:36.237Z,1.50
2023-03-28T07:15:59.436Z,1.30
2023-03-28T07:18:12.002Z,1.30
2023-03-28T07:20:26.040Z,1.50
2023-03-28T07:22:38.550Z,1.50
2023-03-28T07:24:51.024Z,1.20
2023-03-28T07:27:14.611Z,1.30
2023-03-28T07:29:27.910Z,1.30
2023-03-28T07:31:41.081Z,1.40
2023-03-28T07:33:55.347Z,1.20
2023-03-28T07:36:14.336Z,1.40
2023-03-28T07:38:26.978Z,1.40
2023-03-28T07:40:39.575Z,1.50
2023-03-28T07:42:52.230Z,2.10
2023-03-28T07:45:05.110Z,2.00
2023-03-28T07:47:18.202Z,1.20
2023-03-28T07:49:30.965Z,1.30
2023-03-28T07:51:43.787Z,1.20
2023-03-28T07:53:56.294Z,1.40
2023-03-28T07:56:10.513Z,1.20
2023-03-28T07:58:23.699Z,1.30
2023-03-28T08:00:36.678Z,1.20
2023-03-28T08:02:50.954Z,1.30
2023-03-28T08:05:03.840Z,1.30
2023-03-28T08:07:16.899Z,1.60
2023-03-28T08:09:29.465Z,1.20
2023-03-28T08:11:43.615Z,1.20
2023-03-28T08:13:56.174Z,1.90
2023-03-28T08:16:09.488Z,1.90
2023-03-28T08:18:24.412Z,1.50
2023-03-28T08:20:37.316Z,1.60
2023-03-28T08:22:49.856Z,1.50
2023-03-28T08:25:02.540Z,1.20
2023-03-28T08:27:15.086Z,1.00
2023-03-28T08:29:27.662Z,1.30
2023-03-28T08:31:40.383Z,1.10
2023-03-28T08:33:54.703Z,1.30
2023-03-28T08:36:09.062Z,1.50
2023-03-28T08:38:21.925Z,1.20
2023-03-28T08:40:40.237Z,1.40
2023-03-28T08:43:11.445Z,1.70
2023-03-28T08:45:39.055Z,1.70
2023-03-28T08:48:08.039Z,1.60
2023-03-28T08:50:43.394Z,1.30
2023-03-28T08:52:57.079Z,1.60
2023-03-28T08:55:30.682Z,1.40
2023-03-28T08:57:45.271Z,1.30
2023-03-28T09:00:17.175Z,1.80
2023-03-28T09:02:30.049Z,3.70
2023-03-28T09:04:42.720Z,2.40
2023-03-28T09:07:03.363Z,2.80
2023-03-28T09:09:27.189Z,3.30
2023-03-28T09:11:55.002Z,4.40
2023-03-28T09:14:33.541Z,1.70
2023-03-28T09:17:10.207Z,2.30
2023-03-28T09:19:54.931Z,2.90
2023-03-28T09:22:22.506Z,1.80
2023-03-28T09:25:13.384Z,1.70
2023-03-28T09:27:37.690Z,1.70
2023-03-28T09:29:53.944Z,3.10
2023-03-28T09:32:18.427Z,1.50
2023-03-28T09:34:39.988Z,2.20
2023-03-28T09:36:55.561Z,1.50
2023-03-28T09:39:21.877Z,2.50
2023-03-28T09:41:54.406Z,2.60
2023-03-28T09:44:14.911Z,4.30
2023-03-28T09:46:43.366Z,3.30
2023-03-28T09:48:56.678Z,1.50
2023-03-28T09:51:16.625Z,1.50
2023-03-28T09:53:34.506Z,1.50
2023-03-28T09:55:57.967Z,1.90
2023-03-28T09:58:17.634Z,2.90
2023-03-28T10:00:34.930Z,1.50
2023-03-28T10:02:52.860Z,3.20
2023-03-28T10:05:34.672Z,3.20
2023-03-28T10:07:48.014Z,2.00
2023-03-28T10:10:10.848Z,1.70
2023-03-28T10:12:33.743Z,2.70
2023-03-28T10:14:47.411Z,2.90
2023-03-28T10:17:29.651Z,1.90
2023-03-28T10:19:45.479Z,4.30
2023-03-28T10:22:01.918Z,3.90
2023-03-28T10:24:20.226Z,1.60
2023-03-28T10:26:33.774Z,1.30
2023-03-28T10:28:46.463Z,1.10
2023-03-28T10:31:01.673Z,1.00
2023-03-28T10:33:17.858Z,2.30
2023-03-28T10:35:30.958Z,3.10
2023-03-28T10:37:46.726Z,2.80
2023-03-28T10:40:07.716Z,2.70
2023-03-28T10:42:22.767Z,2.40
2023-03-28T10:44:36.492Z,3.70
2023-03-28T10:46:49.219Z,2.70
2023-03-28T10:49:13.500Z,2.90
2023-03-28T10:51:26.998Z,2.40
2023-03-28T10:53:57.610Z,1.10
2023-03-28T10:56:23.044Z,1.40
2023-03-28T10:58:46.872Z,1.70
2023-03-28T11:01:24.937Z,2.00
2023-03-28T11:03:40.721Z,1.30
2023-03-28T11:06:08.644Z,1.40
2023-03-28T11:08:28.585Z,1.20
2023-03-28T11:11:06.113Z,1.10
2023-03-28T11:13:43.111Z,0.90
2023-03-28T11:16:04.384Z,1.00
2023-03-28T11:18:22.567Z,0.90
2023-03-28T11:20:44.041Z,1.00
2023-03-28T11:23:55.038Z,1.00
2023-03-28T11:26:14.548Z,1.40
2023-03-28T11:28:53.177Z,1.30
2023-03-28T11:31:09.068Z,1.10
2023-03-28T11:33:32.362Z,3.10
2023-03-28T11:35:52.289Z,4.70
2023-03-28T11:38:14.961Z,1.20
2023-03-28T11:40:43.480Z,2.50
2023-03-28T11:43:00.392Z,3.10
2023-03-28T11:45:49.617Z,5.80
2023-03-28T11:48:12.561Z,2.60
2023-03-28T11:50:51.433Z,2.40
2023-03-28T11:53:18.137Z,3.00
2023-03-28T11:55:39.272Z,2.40
2023-03-28T11:58:02.729Z,3.70
2023-03-28T12:00:33.754Z,4.60
2023-03-28T12:02:51.655Z,3.50
2023-03-28T12:05:19.274Z,2.50
2023-03-28T12:07:43.179Z,3.30
2023-03-28T12:10:09.896Z,8.70
2023-03-28T12:12:30.871Z,3.50
2023-03-28T12:15:05.339Z,3.20
2023-03-28T12:17:25.358Z,1.90
2023-03-28T12:19:41.112Z,3.40
2023-03-28T12:22:02.069Z,1.70
2023-03-28T12:24:44.564Z,1.50
2023-03-28T12:27:17.115Z,1.70
2023-03-28T12:29:38.545Z,1.30
2023-03-28T12:31:58.406Z,1.50
2023-03-28T12:34:27.977Z,1.40
2023-03-28T12:36:51.792Z,1.20
2023-03-28T12:39:21.778Z,1.40
2023-03-28T12:41:37.670Z,1.40
2023-03-28T12:44:03.058Z,1.50
2023-03-28T12:46:25.096Z,1.80
2023-03-28T12:48:45.700Z,1.40
2023-03-28T12:51:26.120Z,1.50
2023-03-28T12:54:15.730Z,1.30
2023-03-28T12:56:28.321Z,1.20
2023-03-28T12:58:41.334Z,1.00
2023-03-28T13:01:16.975Z,1.10
2023-03-28T13:03:55.706Z,1.30
2023-03-28T13:06:24.666Z,1.20
2023-03-28T13:08:46.531Z,1.10
2023-03-28T13:11:16.699Z,1.30
2023-03-28T13:13:59.052Z,1.30
2023-03-28T13:16:16.983Z,1.10
2023-03-28T13:18:33.744Z,1.40
2023-03-28T13:20:51.927Z,1.30
2023-03-28T13:23:07.942Z,1.80
2023-03-28T13:25:27.288Z,2.00
2023-03-28T13:27:39.942Z,3.40
2023-03-28T13:30:03.717Z,2.90
2023-03-28T13:32:21.030Z,2.20
2023-03-28T13:34:35.476Z,1.30
2023-03-28T13:36:54.870Z,1.50
2023-03-28T13:39:26.506Z,1.30
2023-03-28T13:41:41.751Z,2.10
2023-03-28T13:43:57.591Z,1.40
2023-03-28T13:46:18.600Z,1.90
2023-03-28T13:48:40.099Z,2.70
2023-03-28T13:50:53.609Z,1.70
2023-03-28T13:53:06.482Z,2.00
2023-03-28T13:55:27.872Z,1.80
2023-03-28T13:57:40.532Z,1.40
2023-03-28T13:59:58.409Z,1.80
2023-03-28T14:02:18.478Z,1.30
2023-03-28T14:04:33.957Z,1.40
2023-03-28T14:06:47.608Z,1.70
2023-03-28T14:09:02.608Z,3.30
2023-03-28T14:11:19.796Z,2.00
2023-03-28T14:13:33.580Z,1.30
2023-03-28T14:15:46.625Z,1.50
2023-03-28T14:18:00.863Z,1.60
2023-03-28T14:20:17.892Z,1.50
2023-03-28T14:22:31.974Z,5.40
2023-03-28T14:24:50.411Z,2.30
2023-03-28T14:27:11.832Z,1.70
2023-03-28T14:29:25.940Z,3.60
2023-03-28T14:31:41.640Z,2.30
2023-03-28T14:33:54.217Z,3.10
2023-03-28T14:36:07.481Z,2.40
2023-03-28T14:38:29.300Z,3.10
2023-03-28T14:40:45.636Z,7.60
2023-03-28T14:43:06.401Z,3.10
2023-03-28T14:45:18.977Z,2.90
2023-03-28T14:47:33.348Z,2.80
2023-03-28T14:49:46.850Z,2.40
2023-03-28T14:52:03.350Z,5.60
2023-03-28T14:54:23.445Z,2.70
2023-03-28T14:56:36.881Z,3.50
2023-03-28T14:58:51.237Z,3.80
2023-03-28T15:01:06.200Z,2.90
2023-03-28T15:03:24.395Z,2.10
2023-03-28T15:05:37.722Z,3.00
2023-03-28T15:08:00.965Z,2.70
2023-03-28T15:10:23.557Z,3.50
2023-03-28T15:12:47.130Z,3.10
2023-03-28T15:15:03.194Z,3.70
2023-03-28T15:17:20.923Z,4.20
2023-03-28T15:19:40.329Z,9.60
2023-03-28T15:22:00.308Z,16.50
2023-03-28T15:24:18.012Z,18.50
2023-03-28T15:26:35.762Z,13.80
2023-03-28T15:28:49.070Z,15.60
2023-03-28T15:31:03.880Z,6.20
2023-03-28T15:33:26.153Z,4.30
2023-03-28T15:35:40.034Z,4.00
2023-03-28T15:38:00.428Z,7.10
2023-03-28T15:40:23.001Z,4.40
2023-03-28T15:42:36.310Z,5.50
2023-03-28T15:44:57.798Z,3.20
2023-03-28T15:47:20.676Z,2.90
2023-03-28T15:49:37.766Z,2.60
2023-03-28T15:51:54.691Z,3.70
2023-03-28T15:54:10.703Z,4.80
2023-03-28T15:56:33.906Z,3.10
2023-03-28T15:58:46.744Z,2.90
2023-03-28T16:01:23.071Z,3.60
2023-03-28T16:03:35.873Z,3.90
2023-03-28T16:05:50.898Z,4.20
2023-03-28T16:08:22.014Z,3.50
2023-03-28T16:10:34.583Z,3.50
2023-03-28T16:12:48.444Z,3.30
2023-03-28T16:15:02.213Z,3.20
2023-03-28T16:17:15.221Z,2.40
2023-03-28T16:19:28.896Z,4.80
2023-03-28T16:21:41.406Z,10.30
2023-03-28T16:23:54.011Z,6.60
2023-03-28T16:26:06.924Z,3.00
2023-03-28T16:28:19.523Z,3.10
2023-03-28T16:30:42.608Z,2.20
2023-03-28T16:32:56.034Z,1.90
2023-03-28T16:35:09.733Z,1.90
2023-03-28T16:37:22.346Z,1.80
2023-03-28T16:39:36.031Z,1.40
2023-03-28T16:41:48.570Z,2.00
2023-03-28T16:44:01.137Z,1.70
2023-03-28T16:46:13.745Z,1.60
2023-03-28T16:48:27.099Z,2.20
2023-03-28T16:50:39.682Z,2.00
2023-03-28T16:52:52.462Z,2.40
2023-03-28T16:55:07.443Z,5.40
2023-03-28T16:57:21.239Z,5.40
2023-03-28T16:59:34.049Z,3.10
2023-03-28T17:01:47.525Z,2.50
2023-03-28T17:04:00.250Z,2.80
2023-03-28T17:06:13.664Z,4.40
2023-03-28T17:08:26.287Z,2.30
2023-03-28T17:10:41.278Z,2.10
2023-03-28T17:12:53.965Z,2.50
2023-03-28T17:15:08.838Z,3.10
2023-03-28T17:17:21.483Z,5.40
2023-03-28T17:19:34.710Z,5.60
2023-03-28T17:21:47.276Z,6.40
2023-03-28T17:23:59.756Z,6.80
2023-03-28T17:26:13.296Z,6.50
2023-03-28T17:28:27.763Z,7.50
2023-03-28T17:30:40.620Z,9.20
2023-03-28T17:32:53.695Z,8.00
2023-03-28T17:35:06.806Z,14.50
2023-03-28T17:37:22.221Z,11.70
2023-03-28T17:39:34.815Z,9.10
2023-03-28T17:41:47.329Z,6.30
2023-03-28T17:43:59.934Z,4.30
2023-03-28T17:46:12.855Z,3.50
2023-03-28T17:48:25.808Z,3.40
2023-03-28T17:50:38.779Z,4.20
2023-03-28T17:52:51.763Z,4.60
2023-03-28T17:55:06.221Z,4.60
2023-03-28T17:57:18.829Z,5.00
2023-03-28T17:59:31.441Z,5.10
2023-03-28T18:01:45.585Z,4.50
2023-03-28T18:03:58.330Z,4.90
2023-03-28T18:06:12.913Z,5.10
2023-03-28T18:08:29.560Z,8.80
2023-03-28T18:10:42.841Z,70.80
2023-03-28T18:12:55.374Z,107.90
2023-03-28T18:15:08.118Z,109.30
2023-03-28T18:17:20.670Z,72.30
2023-03-28T18:19:33.249Z,83.50
2023-03-28T18:21:46.633Z,60.50
2023-03-28T18:23:59.303Z,68.60
2023-03-28T18:26:11.983Z,69.50
2023-03-28T18:28:24.626Z,68.80
2023-03-28T18:30:37.704Z,56.60
2023-03-28T18:32:50.346Z,51.40
2023-03-28T18:35:07.071Z,29.30
2023-03-28T18:37:19.683Z,16.80
2023-03-28T18:39:32.286Z,13.30
2023-03-28T18:41:44.943Z,10.70
2023-03-28T18:43:57.636Z,13.80
2023-03-28T18:46:15.487Z,15.90
2023-03-28T18:48:29.068Z,20.00
2023-03-28T18:50:42.124Z,26.10
2023-03-28T18:52:54.742Z,33.00
2023-03-28T18:55:09.305Z,31.90
2023-03-28T18:57:22.088Z,27.70
2023-03-28T18:59:34.765Z,14.30
2023-03-28T19:01:51.496Z,9.90
2023-03-28T19:04:04.503Z,9.60
2023-03-28T19:06:17.283Z,11.60
2023-03-28T19:08:29.974Z,9.80
2023-03-28T19:10:46.453Z,13.60
2023-03-28T19:12:58.972Z,17.20
2023-03-28T19:15:12.126Z,16.60
2023-03-28T19:17:24.663Z,27.00
2023-03-28T19:19:37.514Z,29.40
2023-03-28T19:21:51.785Z,30.70
2023-03-28T19:24:04.683Z,25.00
2023-03-28T19:26:18.330Z,21.20
2023-03-28T19:28:31.306Z,21.20
2023-03-28T19:30:44.128Z,14.60
2023-03-28T19:32:56.865Z,10.00
2023-03-28T19:35:10.115Z,8.70
2023-03-28T19:37:22.728Z,8.80
2023-03-28T19:39:35.285Z,20.40
2023-03-28T19:41:47.836Z,18.50
2023-03-28T19:44:00.524Z,14.00
2023-03-28T19:46:25.042Z,15.70
2023-03-28T19:48:42.402Z,14.20
2023-03-28T19:50:55.116Z,15.70
2023-03-28T19:53:07.722Z,49.60
2023-03-28T19:55:20.303Z,19.10
2023-03-28T19:57:33.041Z,19.70
2023-03-28T19:59:45.707Z,19.40
2023-03-28T20:01:58.338Z,18.70
2023-03-28T20:04:11.933Z,19.90
2023-03-28T20:06:24.552Z,20.20
2023-03-28T20:08:37.913Z,19.20
2023-03-28T20:10:51.540Z,19.50
2023-03-28T20:13:04.372Z,19.60
2023-03-28T20:15:17.080Z,19.70
2023-03-28T20:17:29.788Z,20.70
2023-03-28T20:19:42.476Z,20.40
2023-03-28T20:21:55.120Z,24.60
2023-03-28T20:24:08.065Z,28.50
2023-03-28T20:26:26.947Z,24.80
2023-03-28T20:28:41.526Z,26.10
2023-03-28T20:30:54.179Z,30.90
2023-03-28T20:33:07.395Z,29.50
2023-03-28T20:35:19.971Z,27.50
2023-03-28T20:37:33.187Z,26.50
2023-03-28T20:39:48.212Z,26.10
2023-03-28T20:42:05.483Z,29.00
2023-03-28T20:44:20.057Z,24.60
2023-03-28T20:46:36.740Z,20.70
2023-03-28T20:48:56.786Z,23.40
2023-03-28T20:51:15.825Z,22.10
2023-03-28T20:53:33.161Z,27.90
2023-03-28T20:55:45.781Z,29.00
2023-03-28T20:57:58.621Z,31.60
2023-03-28T21:00:14.674Z,39.10
2023-03-28T21:02:33.314Z,32.30
2023-03-28T21:04:46.252Z,30.10
2023-03-28T21:07:01.581Z,31.90
2023-03-28T21:09:17.968Z,32.50
2023-03-28T21:11:33.685Z,31.40
2023-03-28T21:13:46.307Z,30.40
2023-03-28T21:15:58.855Z,29.40
2023-03-28T21:18:12.418Z,41.80
2023-03-28T21:20:25.031Z,43.20
2023-03-28T21:22:40.857Z,39.90
2023-03-28T21:24:53.505Z,37.50
2023-03-28T21:27:06.100Z,35.70
2023-03-28T21:29:19.353Z,31.00
2023-03-28T21:31:31.993Z,32.10
2023-03-28T21:33:45.562Z,39.40
2023-03-28T21:35:59.412Z,37.70
2023-03-28T21:38:12.005Z,39.30
2023-03-28T21:40:24.586Z,36.90
2023-03-28T21:42:37.275Z,35.70
2023-03-28T21:44:49.830Z,33.30
2023-03-28T21:47:02.383Z,35.30
2023-03-28T21:49:14.966Z,35.30
2023-03-28T21:51:27.677Z,35.90
2023-03-28T21:53:41.870Z,36.70
2023-03-28T21:55:56.162Z,36.10
2023-03-28T21:58:08.724Z,36.70
2023-03-28T22:00:21.409Z,35.80
2023-03-28T22:02:34.101Z,34.90
2023-03-28T22:04:47.151Z,33.70
2023-03-28T22:06:59.709Z,32.20
2023-03-28T22:09:12.281Z,30.80
2023-03-28T22:11:30.002Z,30.00
2023-03-28T22:13:44.726Z,28.50
2023-03-28T22:15:59.904Z,27.40
2023-03-28T22:18:13.324Z,28.10
2023-03-28T22:20:28.105Z,28.80
2023-03-28T22:22:49.022Z,28.10
2023-03-28T22:25:04.195Z,30.00
2023-03-28T22:27:17.936Z,26.90
2023-03-28T22:29:31.615Z,25.70
2023-03-28T22:31:44.213Z,27.20
2023-03-28T22:33:56.947Z,25.80
2023-03-28T22:36:10.227Z,26.10
2023-03-28T22:38:22.861Z,25.20
2023-03-28T22:40:35.520Z,24.60
2023-03-28T22:42:48.256Z,25.50
2023-03-28T22:45:01.196Z,25.20
2023-03-28T22:47:14.797Z,25.60
2023-03-28T22:49:29.949Z,25.30
2023-03-28T22:51:48.877Z,25.80
2023-03-28T22:54:03.112Z,26.10
2023-03-28T22:56:15.679Z,27.00
2023-03-28T22:58:28.156Z,27.40
2023-03-28T23:00:40.759Z,27.50
2023-03-28T23:02:53.339Z,26.00
2023-03-28T23:05:07.784Z,26.00
2023-03-28T23:07:20.802Z,25.50
2023-03-28T23:09:33.422Z,26.30
2023-03-28T23:11:46.168Z,25.90
2023-03-28T23:13:58.745Z,25.90
2023-03-28T23:16:11.334Z,25.10
2023-03-28T23:18:23.935Z,26.50
2023-03-28T23:20:38.096Z,32.40
2023-03-28T23:22:50.668Z,40.10
2023-03-28T23:25:03.648Z,34.70
2023-03-28T23:27:17.393Z,28.80
2023-03-28T23:29:29.940Z,28.00
2023-03-28T23:31:42.533Z,29.20
2023-03-28T23:33:55.089Z,27.60
2023-03-28T23:36:08.058Z,28.00
2023-03-28T23:38:20.606Z,27.80
2023-03-28T23:40:33.595Z,27.00
2023-03-28T23:42:46.628Z,27.70
2023-03-28T23:44:59.269Z,28.60
2023-03-28T23:47:12.523Z,28.50
2023-03-28T23:49:25.175Z,29.90
2023-03-28T23:51:37.788Z,28.00
2023-03-28T23:53:50.879Z,28.00
2023-03-28T23:56:03.847Z,25.70
2023-03-28T23:58:16.799Z,24.90
